Deer Creek, IL (61733)

5:50 AM CDT on July 30, 2015 (GMT -0500)
Oak Valley | | Change Station
CLOSE
Current Station
Personal Weather Station
Location: Goodfield, IL
Elevation: 764 ft
Nearby Weather Stations
Active Advisory: Flood Warning Active Notice: Local Storm Report

Elev 764 ft 40.61 °N, 89.27 °W | Updated 47 seconds ago

Clear
Clear
61.9 °F
Feels Like 61.9 °F
N
0.0
Wind Variable Wind from SE
Gusts 0.0 mph

Today
High -- | Low -- °F
--% Chance of Precip.
Yesterday
High -- | Low -- °F
Precip. -- in
5:52 AM 8:14 PM
Waxing Gibbous, 99% visible
Pressure 30.09 in
Visibility 10.0 miles
Clouds Clear
Dew Point 60 °F
Humidity 95%
Rainfall 0.00 in
Snow Depth Not available.
UV 0 out of 12
Pollen .70 out of 12
Air Quality Not available.
Flu Activity Not available.
METAR KPIA 300954Z 30005KT 10SM CLR 21/14 A3010 RMK AO2 SLP187 T02110144

More Conditions Fewer Conditions

Pressure 30.09 in
Visibility 10.0 miles
Clouds Clear
Dew Point 60 °F
Humidity 95%
Rainfall 0.00 in
Snow Depth Not available.
UV 0 out of 12
Pollen .70 out of 12
Air Quality Not available.
Flu Activity Not available.
METAR KPIA 300954Z 30005KT 10SM CLR 21/14 A3010 RMK AO2 SLP187 T02110144

More Conditions Fewer Conditions

10-Day Weather Forecast

×

Almanac

Astronomy

Jul. 30, 2015 Rise Set
Actual Time
Civil Twilight
Nautical Twilight
Astronomical Twilight
Moon
Length of Visible Light
Length of Day
Tomorrow will be .
, % of the Moon is Illuminated

Today's Extremes

State Highs State Lows

Community

WunderPhotos

Upload Photos

1,842,320 photos uploaded!

WunderBlogs® & News

Nearby

Air Quality

  Air Quality AQ Index Pollutant
Not available.

Snow Depth

Station Depth Elevation

Earthquake Activity

City Distance Mag. Time & Date
Minimum magnitude displayed is 2.5.

Coastal Water Temperatures

Place Temperature

Stations

Nearby Weather Stations

Station Location Temp. Windchill Dew Point Humidity Wind Precip. Elev Updated Type
                   
Flood Warning
Statement as of 8:00 PM CDT on July 29, 2015

The Flood Warning continues for
the Illinois River near Peoria.
* Until Saturday morning.
* At 745 PM Wednesday the stage was 19.0 feet.
* Flood stage is 18.0 feet.
* Minor flooding is occurring and minor flooding is forecast.
* Forecast... the river will continue to fall to below flood stage by
early Saturday morning.
* Impact... at 18.0 feet... some flooding begins to bottomland not
protected by levees.



                  Fld observed forecast 6am
location stg stg day time Thu Fri Sat

Illinois River
Peoria 18 19.0 Wed 8 PM 18.8 18.3 17.9



Lat... Lon 4093 8952 4093 8941 4062 8957 4047 8980
      4053 8988 4068 8965